createdAt,value
2022-08-10T00:01:52.974Z,99716.81
2022-08-10T00:04:23.713Z,99709.81
2022-08-10T00:06:53.242Z,99713.47
2022-08-10T00:09:21.071Z,99707.06
2022-08-10T00:11:47.717Z,99694.75
2022-08-10T00:14:14.381Z,99685.25
2022-08-10T00:16:41.024Z,99691.09
2022-08-10T00:19:07.698Z,99679.53
2022-08-10T00:21:34.411Z,99676.00
2022-08-10T00:24:01.156Z,99662.28
2022-08-10T00:27:52.855Z,99665.94
2022-08-10T00:29:14.646Z,99674.63
2022-08-10T00:31:58.537Z,99665.56
2022-08-10T00:34:30.599Z,99652.88
2022-08-10T00:36:58.159Z,99639.16
2022-08-10T00:39:26.023Z,99623.75
2022-08-10T00:42:07.380Z,99612.31
2022-08-10T00:44:43.740Z,99609.03
2022-08-10T00:47:36.499Z,99602.97
2022-08-10T00:49:58.894Z,99602.63
2022-08-10T00:52:27.500Z,99597.63
2022-08-10T00:54:55.198Z,99601.63
2022-08-10T00:57:22.619Z,99598.53
2022-08-10T00:59:58.778Z,99585.06
2022-08-10T01:02:31.040Z,99568.63
2022-08-10T01:05:07.790Z,99556.06
2022-08-10T01:07:46.435Z,99556.75
2022-08-10T01:10:27.140Z,99571.59
2022-08-10T01:13:01.576Z,99589.75
2022-08-10T01:15:43.407Z,99588.72
2022-08-10T01:18:18.645Z,99584.75
2022-08-10T01:21:23.572Z,99588.97
2022-08-10T01:23:56.136Z,99582.34
2022-08-10T01:26:59.797Z,99578.91
2022-08-10T01:29:26.412Z,99576.63
2022-08-10T01:32:01.156Z,99570.00
2022-08-10T01:34:36.844Z,99573.88
2022-08-10T01:37:14.792Z,99565.66
2022-08-10T01:39:46.820Z,99557.91
2022-08-10T01:42:16.891Z,99555.63
2022-08-10T01:44:49.989Z,99552.44
2022-08-10T01:47:37.389Z,99557.00
2022-08-10T01:50:15.217Z,99553.56
2022-08-10T01:52:45.459Z,99569.75
2022-08-10T01:55:16.000Z,99572.72
2022-08-10T01:57:45.760Z,99579.59
2022-08-10T02:00:13.760Z,99582.06
2022-08-10T02:02:43.111Z,99575.72
2022-08-10T02:05:12.056Z,99571.38
2022-08-10T02:07:41.385Z,99559.94
2022-08-10T02:10:11.647Z,99548.06
2022-08-10T02:12:41.116Z,99527.72
2022-08-10T02:15:12.951Z,99521.22
2022-08-10T02:18:00.250Z,99511.50
2022-08-10T02:20:39.930Z,99502.13
2022-08-10T02:23:11.729Z,99499.13
2022-08-10T02:25:43.593Z,99500.28
2022-08-10T02:28:27.083Z,99492.78
2022-08-10T02:30:59.548Z,99493.66
2022-08-10T02:33:27.767Z,99495.25
2022-08-10T02:35:58.519Z,99481.44
2022-08-10T02:38:59.181Z,99468.31
2022-08-10T02:45:09.020Z,99463.28
2022-08-10T02:45:22.577Z,99457.13
2022-08-10T02:48:05.626Z,99460.56
2022-08-10T02:50:35.042Z,99443.41
2022-08-10T02:53:54.608Z,99449.88
2022-08-10T02:56:24.852Z,99460.72
2022-08-10T02:59:05.524Z,99464.44
2022-08-10T03:01:39.067Z,99480.22
2022-08-10T03:04:11.902Z,99479.50
2022-08-10T03:06:44.471Z,99495.41
2022-08-10T03:09:15.223Z,99497.03
2022-08-10T03:12:37.478Z,99483.28
2022-08-10T03:14:34.279Z,99487.19
2022-08-10T03:17:04.040Z,99474.34
2022-08-10T03:20:34.707Z,99479.13
2022-08-10T03:22:22.526Z,99489.88
2022-08-10T03:24:51.544Z,99486.31
2022-08-10T03:27:19.108Z,99482.53
2022-08-10T03:30:29.750Z,99490.06
2022-08-10T03:32:35.736Z,99489.16
2022-08-10T03:35:03.056Z,99470.75
2022-08-10T03:37:29.998Z,99472.00
2022-08-10T03:39:57.179Z,99468.28
2022-08-10T03:42:25.004Z,99470.00
2022-08-10T03:44:53.346Z,99493.09
2022-08-10T03:47:24.624Z,99488.59
2022-08-10T03:49:52.402Z,99487.88
2022-08-10T03:52:22.073Z,99499.13
2022-08-10T03:54:51.719Z,99492.50
2022-08-10T03:57:20.548Z,99496.50
2022-08-10T03:59:47.435Z,99483.00
2022-08-10T04:02:43.692Z,99474.88
2022-08-10T04:05:01.244Z,99473.72
2022-08-10T04:07:29.536Z,99468.25
2022-08-10T04:09:56.537Z,99468.66
2022-08-10T04:12:25.597Z,99472.31
2022-08-10T04:14:53.471Z,99459.28
2022-08-10T04:17:57.179Z,99456.53
2022-08-10T04:20:18.448Z,99449.44
2022-08-10T04:22:48.825Z,99446.78
2022-08-10T04:25:16.601Z,99437.94
2022-08-10T04:27:44.557Z,99433.25
2022-08-10T04:30:13.784Z,99432.38
2022-08-10T04:32:42.290Z,99411.19
2022-08-10T04:35:10.973Z,99391.72
2022-08-10T04:37:46.960Z,99389.41
2022-08-10T04:40:29.966Z,99381.63
2022-08-10T04:43:12.206Z,99380.19
2022-08-10T04:45:47.268Z,99373.91
2022-08-10T04:48:42.084Z,99377.09
2022-08-10T04:51:04.914Z,99381.25
2022-08-10T04:53:34.204Z,99373.91
2022-08-10T04:56:31.644Z,99371.84
2022-08-10T04:58:59.324Z,99379.38
2022-08-10T05:01:26.105Z,99379.75
2022-08-10T05:04:35.170Z,99386.03
2022-08-10T05:06:40.112Z,99381.34
2022-08-10T05:09:06.797Z,99377.50
2022-08-10T05:11:33.560Z,99380.53
2022-08-10T05:14:00.477Z,99379.31
2022-08-10T05:16:32.036Z,99367.97
2022-08-10T05:18:59.617Z,99372.56
2022-08-10T05:22:02.504Z,99373.44
2022-08-10T05:24:15.348Z,99373.81
2022-08-10T05:27:00.598Z,99356.19
2022-08-10T05:29:29.141Z,99357.81
2022-08-10T05:31:56.301Z,99352.84
2022-08-10T05:34:27.630Z,99360.31
2022-08-10T05:36:55.681Z,99355.69
2022-08-10T05:39:30.373Z,99358.34
2022-08-10T05:42:01.255Z,99356.41
2022-08-10T05:44:29.350Z,99355.69
2022-08-10T05:46:56.439Z,99344.78
2022-08-10T05:49:23.191Z,99348.25
2022-08-10T05:51:50.433Z,99340.97
2022-08-10T05:54:19.336Z,99329.59
2022-08-10T05:56:55.715Z,99334.28
2022-08-10T06:00:29.410Z,99333.31
2022-08-10T06:02:48.068Z,99329.16
2022-08-10T06:05:20.700Z,99326.53
2022-08-10T06:07:55.609Z,99341.50
2022-08-10T06:10:31.229Z,99335.22
2022-08-10T06:13:30.297Z,99346.38
2022-08-10T06:16:06.070Z,99333.22
2022-08-10T06:18:33.133Z,99304.22
2022-08-10T06:21:01.029Z,99286.88
2022-08-10T06:23:32.099Z,99292.97
2022-08-10T06:26:11.097Z,99288.84
2022-08-10T06:29:02.332Z,99300.50
2022-08-10T06:31:48.210Z,99310.53
2022-08-10T06:34:21.580Z,99309.47
2022-08-10T06:36:48.671Z,99323.22
2022-08-10T06:39:34.130Z,99303.81
2022-08-10T06:42:18.337Z,99288.72
2022-08-10T06:45:19.488Z,99294.69
2022-08-10T06:47:52.216Z,99296.09
2022-08-10T06:50:56.265Z,99280.81
2022-08-10T06:53:53.401Z,99279.94
2022-08-10T06:56:36.480Z,99290.47
2022-08-10T06:59:15.545Z,99292.06
2022-08-10T07:01:53.352Z,99311.75
2022-08-10T07:04:32.754Z,99333.47
2022-08-10T07:07:04.557Z,99348.06
2022-08-10T07:09:35.456Z,99349.78
2022-08-10T07:12:08.564Z,99355.53
2022-08-10T07:14:42.108Z,99380.31
2022-08-10T07:17:19.896Z,99382.50
2022-08-10T07:19:52.068Z,99382.75
2022-08-10T07:23:26.875Z,99394.34
2022-08-10T07:25:12.451Z,99414.44
2022-08-10T07:27:59.574Z,99414.56
2022-08-10T07:30:29.030Z,99427.34
2022-08-10T07:32:56.768Z,99428.72
2022-08-10T07:35:26.677Z,99448.13
2022-08-10T07:37:55.346Z,99459.97
2022-08-10T07:40:23.639Z,99471.19
2022-08-10T07:42:56.361Z,99494.78
2022-08-10T07:45:24.392Z,99507.38
2022-08-10T07:48:27.888Z,99522.13
2022-08-10T07:50:59.369Z,99520.97
2022-08-10T07:53:35.572Z,99519.53
2022-08-10T07:56:20.880Z,99523.09
2022-08-10T07:59:02.409Z,99532.97
2022-08-10T08:01:33.539Z,99540.97
2022-08-10T08:04:05.347Z,99550.66
2022-08-10T08:06:40.261Z,99564.09
2022-08-10T08:09:07.031Z,99583.09
2022-08-10T08:11:38.157Z,99598.91
2022-08-10T08:14:09.681Z,99614.44
2022-08-10T08:16:39.949Z,99625.50
2022-08-10T08:19:27.913Z,99632.09
2022-08-10T08:24:05.241Z,99646.25
2022-08-10T08:24:44.442Z,99647.09
2022-08-10T08:27:15.370Z,99648.69
2022-08-10T08:29:44.778Z,99682.53
2022-08-10T08:32:13.314Z,99693.56
2022-08-10T08:34:43.762Z,99703.00
2022-08-10T08:37:12.307Z,99707.81
2022-08-10T08:39:48.133Z,99703.19
2022-08-10T08:42:46.925Z,99718.44
2022-08-10T08:46:09.436Z,99733.84
2022-08-10T08:49:11.017Z,99747.78
2022-08-10T08:52:09.675Z,99742.22
2022-08-10T08:54:42.837Z,99753.81
2022-08-10T08:57:51.254Z,99789.31
2022-08-10T09:00:34.403Z,99808.19
2022-08-10T09:03:28.102Z,99802.66
2022-08-10T09:06:23.120Z,99806.16
2022-08-10T09:08:52.715Z,99792.47
2022-08-10T09:11:19.284Z,99790.09
2022-08-10T09:13:58.056Z,99775.13
2022-08-10T09:17:13.107Z,99766.75
2022-08-10T09:20:17.569Z,99771.13
2022-08-10T09:23:01.548Z,99787.91
2022-08-10T09:25:39.389Z,99811.63
2022-08-10T09:28:08.518Z,99811.63
2022-08-10T09:31:18.884Z,99820.41
2022-08-10T09:36:27.870Z,99838.53
2022-08-10T09:37:03.304Z,99827.50
2022-08-10T09:40:56.015Z,99836.91
2022-08-10T09:42:33.784Z,99830.66
2022-08-10T09:45:07.253Z,99826.84
2022-08-10T09:48:02.347Z,99833.22
2022-08-10T09:51:09.309Z,99833.22
2022-08-10T09:53:48.222Z,99837.22
2022-08-10T09:56:59.749Z,99834.19
2022-08-10T10:00:09.114Z,99828.41
2022-08-10T10:02:47.146Z,99819.03
2022-08-10T10:05:39.169Z,99822.28
2022-08-10T10:08:44.736Z,99801.09
2022-08-10T10:11:25.213Z,99815.81
2022-08-10T10:14:05.135Z,99821.44
2022-08-10T10:16:43.717Z,99823.88
2022-08-10T10:19:38.479Z,99830.34
2022-08-10T10:22:26.191Z,99826.47
2022-08-10T10:25:02.300Z,99821.75
2022-08-10T10:27:58.603Z,99816.34
2022-08-10T10:30:31.192Z,99819.13
2022-08-10T10:33:33.364Z,99820.03
2022-08-10T10:36:02.196Z,99835.47
2022-08-10T10:38:38.208Z,99829.88
2022-08-10T10:41:29.828Z,99835.94
2022-08-10T10:44:07.650Z,99836.34
2022-08-10T10:53:39.418Z,99828.69
2022-08-10T10:56:27.354Z,99841.78
2022-08-10T10:59:53.823Z,99841.88
2022-08-10T11:02:21.445Z,99845.53
2022-08-10T11:05:09.548Z,99847.16
2022-08-10T11:07:45.853Z,99846.41
2022-08-10T11:10:32.883Z,99840.88
2022-08-10T11:14:26.970Z,99840.16
2022-08-10T11:16:25.008Z,99838.94
2022-08-10T11:19:13.501Z,99843.41
2022-08-10T11:21:52.007Z,99833.91
2022-08-10T11:24:48.016Z,99839.50
2022-08-10T11:27:22.309Z,99850.66
2022-08-10T11:30:08.258Z,99851.03
2022-08-10T11:32:53.403Z,99857.00
2022-08-10T11:35:44.739Z,99862.56
2022-08-10T11:38:34.867Z,99885.56
2022-08-10T11:42:07.778Z,99877.97
2022-08-10T11:44:31.144Z,99876.78
2022-08-10T11:47:05.023Z,99868.44
2022-08-10T11:49:49.513Z,99876.00
2022-08-10T11:52:25.836Z,99886.75
2022-08-10T11:54:54.549Z,99892.28
2022-08-10T11:57:25.305Z,99882.41
2022-08-10T12:00:13.008Z,99893.56
2022-08-10T12:02:46.308Z,99884.06
2022-08-10T12:05:20.302Z,99886.81
2022-08-10T12:08:54.538Z,99890.78
2022-08-10T12:10:43.480Z,99879.31
2022-08-10T12:13:16.988Z,99872.22
2022-08-10T12:15:55.906Z,99866.66
2022-08-10T12:18:30.748Z,99863.50
2022-08-10T12:21:05.422Z,99864.31
2022-08-10T12:23:46.280Z,99866.69
2022-08-10T12:26:20.789Z,99863.53
2022-08-10T12:29:12.824Z,99855.56
2022-08-10T12:31:58.169Z,99853.91
2022-08-10T12:34:45.501Z,99838.88
2022-08-10T12:37:22.955Z,99838.50
2022-08-10T12:40:33.986Z,99847.63
2022-08-10T12:44:07.013Z,99846.06
2022-08-10T12:46:14.968Z,99839.69
2022-08-10T12:49:00.602Z,99841.28
2022-08-10T12:51:30.518Z,99827.75
2022-08-10T12:54:08.172Z,99838.91
2022-08-10T12:56:40.026Z,99838.88
2022-08-10T12:59:09.956Z,99830.94
2022-08-10T13:02:09.474Z,99818.25
2022-08-10T13:04:35.609Z,99817.84
2022-08-10T13:07:04.708Z,99814.22
2022-08-10T13:09:34.609Z,99820.97
2022-08-10T13:12:35.887Z,99804.72
2022-08-10T13:15:49.870Z,99805.53
2022-08-10T13:18:23.076Z,99807.91
2022-08-10T13:20:55.239Z,99808.72
2022-08-10T13:23:26.904Z,99811.50
2022-08-10T13:25:56.901Z,99821.78
2022-08-10T13:28:45.585Z,99836.09
2022-08-10T13:31:21.709Z,99822.59
2022-08-10T13:34:43.393Z,99816.63
2022-08-10T13:37:09.449Z,99832.47
2022-08-10T13:39:59.251Z,99838.44
2022-08-10T13:42:32.084Z,99844.41
2022-08-10T13:45:05.073Z,99843.59
2022-08-10T13:47:47.972Z,99841.22
2022-08-10T13:50:33.396Z,99851.56
2022-08-10T13:53:09.958Z,99855.47
2022-08-10T13:55:54.538Z,99832.34
2022-08-10T13:58:32.456Z,99845.88
2022-08-10T14:01:01.813Z,99846.66
2022-08-10T14:03:34.449Z,99850.19
2022-08-10T14:06:04.429Z,99847.00
2022-08-10T14:08:32.826Z,99854.63
2022-08-10T14:11:09.417Z,99845.13
2022-08-10T14:13:43.449Z,99846.75
2022-08-10T14:16:12.153Z,99839.63
2022-08-10T14:18:42.294Z,99835.13
2022-08-10T14:21:09.362Z,99842.69
2022-08-10T14:23:41.606Z,99845.88
2022-08-10T14:26:09.587Z,99845.53
2022-08-10T14:28:51.374Z,99844.41
2022-08-10T14:31:22.333Z,99837.25
2022-08-10T14:33:54.629Z,99830.94
2022-08-10T14:36:47.530Z,99810.25
2022-08-10T14:39:26.868Z,99819.78
2022-08-10T14:42:01.932Z,99805.50
2022-08-10T14:44:45.218Z,99800.66
2022-08-10T14:47:53.245Z,99800.50
2022-08-10T14:50:03.462Z,99821.72
2022-08-10T14:52:39.312Z,99835.19
2022-08-10T14:55:19.762Z,99850.38
2022-08-10T14:58:16.559Z,99845.63
2022-08-10T15:00:42.839Z,99830.53
2022-08-10T15:03:58.070Z,99827.47
2022-08-10T15:06:06.989Z,99817.91
2022-08-10T15:08:37.085Z,99808.09
2022-08-10T15:11:05.248Z,99811.25
2022-08-10T15:13:34.308Z,99813.25
2022-08-10T15:16:13.029Z,99798.94
2022-08-10T15:18:57.523Z,99801.59
2022-08-10T15:21:42.905Z,99802.53
2022-08-10T15:24:36.986Z,99806.41
2022-08-10T15:27:09.386Z,99802.47
2022-08-10T15:29:36.978Z,99813.03
2022-08-10T15:32:49.381Z,99798.75
2022-08-10T15:35:36.434Z,99784.59
2022-08-10T15:38:06.876Z,99774.69
2022-08-10T15:40:50.744Z,99771.16
2022-08-10T15:43:25.192Z,99766.47
2022-08-10T15:46:02.084Z,99767.56
2022-08-10T15:48:40.617Z,99764.41
2022-08-10T15:51:53.842Z,99758.41
2022-08-10T15:54:33.339Z,99752.78
2022-08-10T15:57:10.641Z,99742.31
2022-08-10T16:00:00.092Z,99747.63
2022-08-10T16:02:30.135Z,99752.41
2022-08-10T16:05:11.312Z,99751.66
2022-08-10T16:07:49.178Z,99751.75
2022-08-10T16:10:28.824Z,99752.84
2022-08-10T16:13:51.072Z,99743.31
2022-08-10T16:15:53.501Z,99738.63
2022-08-10T16:18:26.417Z,99719.63
2022-08-10T16:21:01.830Z,99715.59
2022-08-10T16:23:32.681Z,99711.66
2022-08-10T16:26:14.849Z,99709.63
2022-08-10T16:28:50.032Z,99713.19
2022-08-10T16:31:22.313Z,99714.72
2022-08-10T16:33:53.484Z,99712.22
2022-08-10T16:36:28.860Z,99710.19
2022-08-10T16:38:55.928Z,99714.97
2022-08-10T16:42:03.355Z,99704.63
2022-08-10T16:44:17.627Z,99705.72
2022-08-10T16:46:45.326Z,99696.88
2022-08-10T16:49:18.015Z,99700.03
2022-08-10T16:51:49.309Z,99699.16
2022-08-10T16:54:24.849Z,99695.09
2022-08-10T16:57:01.498Z,99688.69
2022-08-10T16:59:34.145Z,99688.59
2022-08-10T17:02:01.758Z,99679.06
2022-08-10T17:04:31.299Z,99687.09
2022-08-10T17:07:01.178Z,99686.09
2022-08-10T17:09:31.953Z,99689.03
2022-08-10T17:12:04.559Z,99679.59
2022-08-10T17:14:31.391Z,99659.44
2022-08-10T17:17:07.585Z,99644.78
2022-08-10T17:19:42.484Z,99626.63
2022-08-10T17:22:17.436Z,99622.72
2022-08-10T17:24:48.885Z,99617.16
2022-08-10T17:28:05.292Z,99617.56
2022-08-10T17:30:12.443Z,99587.53
2022-08-10T17:33:01.733Z,99564.97
2022-08-10T17:35:32.344Z,99567.34
2022-08-10T17:38:09.601Z,99557.88
2022-08-10T17:40:55.568Z,99537.28
2022-08-10T17:43:46.093Z,99544.81
2022-08-10T17:46:14.114Z,99530.16
2022-08-10T17:48:42.997Z,99527.38
2022-08-10T17:51:14.086Z,99526.59
2022-08-10T17:53:56.570Z,99515.84
2022-08-10T17:56:25.059Z,99491.28
2022-08-10T17:58:57.985Z,99517.44
2022-08-10T18:01:41.263Z,99498.41
2022-08-10T18:04:19.345Z,99488.91
2022-08-10T18:06:53.327Z,99501.59
2022-08-10T18:09:30.952Z,99485.34
2022-08-10T18:12:02.400Z,99480.56
2022-08-10T18:14:38.906Z,99496.41
2022-08-10T18:17:13.116Z,99498.41
2022-08-10T18:19:45.105Z,99471.44
2022-08-10T18:22:13.757Z,99485.72
2022-08-10T18:24:42.662Z,99482.56
2022-08-10T18:27:12.334Z,99459.94
2022-08-10T18:29:42.527Z,99461.16
2022-08-10T18:32:11.616Z,99459.16
2022-08-10T18:34:40.989Z,99450.41
2022-08-10T18:37:10.456Z,99442.47
2022-08-10T18:39:40.724Z,99465.09
2022-08-10T18:42:12.453Z,99457.97
2022-08-10T18:44:47.417Z,99446.81
2022-08-10T18:47:19.825Z,99437.28
2022-08-10T18:50:05.741Z,99445.22
2022-08-10T18:52:34.685Z,99454.72
2022-08-10T18:55:14.243Z,99429.31
2022-08-10T18:58:10.394Z,99416.28
2022-08-10T19:01:09.392Z,99439.63
2022-08-10T19:03:54.573Z,99451.53
2022-08-10T19:06:52.027Z,99440.34
2022-08-10T19:09:45.601Z,99410.22
2022-08-10T19:12:40.405Z,99419.78
2022-08-10T19:15:24.060Z,99424.13
2022-08-10T19:18:07.704Z,99410.66
2022-08-10T19:20:50.931Z,99388.75
2022-08-10T19:23:33.653Z,99386.41
2022-08-10T19:26:42.031Z,99395.16
2022-08-10T19:29:10.949Z,99386.47
2022-08-10T19:32:10.752Z,99376.81
2022-08-10T19:34:37.464Z,99342.78
2022-08-10T19:37:16.563Z,99361.00
2022-08-10T19:39:50.371Z,99365.00
2022-08-10T19:42:31.461Z,99367.34
2022-08-10T19:46:01.275Z,99342.69
2022-08-10T19:48:38.150Z,99337.16
2022-08-10T19:51:13.899Z,99351.44
2022-08-10T19:54:02.032Z,99352.28
2022-08-10T19:56:50.157Z,99359.78
2022-08-10T20:00:16.600Z,99339.41
2022-08-10T20:02:27.030Z,99330.75
2022-08-10T20:05:12.325Z,99340.69
2022-08-10T20:08:05.293Z,99360.84
2022-08-10T20:10:47.660Z,99353.72
2022-08-10T20:13:40.625Z,99354.56
2022-08-10T20:16:11.784Z,99351.75
2022-08-10T20:18:53.932Z,99319.50
2022-08-10T20:21:36.533Z,99306.91
2022-08-10T20:24:11.336Z,99315.59
2022-08-10T20:26:55.117Z,99322.69
2022-08-10T20:29:58.229Z,99326.69
2022-08-10T20:32:25.575Z,99327.50
2022-08-10T20:35:08.157Z,99330.28
2022-08-10T20:38:04.136Z,99329.84
2022-08-10T20:40:47.348Z,99307.16
2022-08-10T20:43:45.696Z,99286.66
2022-08-10T20:46:27.961Z,99305.22
2022-08-10T20:48:54.669Z,99319.50
2022-08-10T20:51:59.297Z,99318.66
2022-08-10T20:54:16.161Z,99322.59
2022-08-10T20:56:54.745Z,99318.66
2022-08-10T21:00:04.592Z,99321.00
2022-08-10T21:02:48.722Z,99322.56
2022-08-10T21:05:25.397Z,99312.22
2022-08-10T21:08:25.424Z,99285.13
2022-08-10T21:11:36.301Z,99269.41
2022-08-10T21:14:10.726Z,99280.47
2022-08-10T21:16:45.259Z,99277.38
2022-08-10T21:19:34.708Z,99287.63
2022-08-10T21:22:26.383Z,99293.16
2022-08-10T21:25:15.701Z,99284.38
2022-08-10T21:28:04.230Z,99262.13
2022-08-10T21:30:46.025Z,99264.63
2022-08-10T21:33:36.969Z,99287.56
2022-08-10T21:36:23.578Z,99286.75
2022-08-10T21:39:07.618Z,99280.44
2022-08-10T21:42:16.931Z,99286.84
2022-08-10T21:45:58.693Z,99292.25
2022-08-10T21:48:57.069Z,99276.22
2022-08-10T21:52:01.757Z,99280.59
2022-08-10T21:55:03.108Z,99254.63
2022-08-10T21:58:08.789Z,99236.13
2022-08-10T22:01:13.421Z,99240.97
2022-08-10T22:04:01.169Z,99249.66
2022-08-10T22:06:52.589Z,99257.84
2022-08-10T22:09:45.896Z,99255.44
2022-08-10T22:12:34.283Z,99252.34
2022-08-10T22:16:03.344Z,99252.34
2022-08-10T22:18:53.746Z,99257.72
2022-08-10T22:22:27.815Z,99252.53
2022-08-10T22:25:35.637Z,99252.06
2022-08-10T22:28:20.976Z,99246.19
2022-08-10T22:31:32.995Z,99244.91
2022-08-10T22:34:59.120Z,99247.28
2022-08-10T22:37:57.143Z,99244.91
2022-08-10T22:40:44.281Z,99254.72
2022-08-10T22:43:42.432Z,99250.28
2022-08-10T22:46:46.499Z,99244.16
2022-08-10T22:49:21.233Z,99239.06
2022-08-10T22:52:19.480Z,99226.44
2022-08-10T22:55:16.092Z,99238.66
2022-08-10T22:58:06.651Z,99226.72
2022-08-10T23:00:34.482Z,99214.59
2022-08-10T23:03:13.373Z,99219.69
2022-08-10T23:05:57.606Z,99212.19
2022-08-10T23:08:30.647Z,99208.22
2022-08-10T23:11:04.457Z,99202.56
2022-08-10T23:13:36.049Z,99203.41
2022-08-10T23:16:37.519Z,99195.13
2022-08-10T23:19:13.348Z,99205.31
2022-08-10T23:22:03.761Z,99200.97
2022-08-10T23:24:34.433Z,99199.34
2022-08-10T23:27:12.501Z,99196.91
2022-08-10T23:30:09.708Z,99188.09
2022-08-10T23:32:43.320Z,99181.59
2022-08-10T23:36:31.312Z,99160.66
2022-08-10T23:38:03.645Z,99156.25
2022-08-10T23:40:31.536Z,99145.13
2022-08-10T23:42:59.523Z,99133.75
2022-08-10T23:45:29.044Z,99136.00
2022-08-10T23:48:18.794Z,99127.59
2022-08-10T23:50:53.173Z,99124.44
2022-08-10T23:53:37.143Z,99112.63
2022-08-10T23:56:14.429Z,99102.34
2022-08-10T23:58:48.119Z,99093.66
